sensor_id;sensor_type;location;lat;lon;timestamp;pressure;altitude;pressure_sealevel;temperature;humidity
5691;BME280;2870;42.680;23.364;2023-05-07T00:00:35;95331.56;;;11.52;90.88
5691;BME280;2870;42.680;23.364;2023-05-07T00:03:02;95335.66;;;11.36;91.54
5691;BME280;2870;42.680;23.364;2023-05-07T00:05:32;95337.53;;;11.26;92.30
5691;BME280;2870;42.680;23.364;2023-05-07T00:07:58;95343.13;;;11.26;93.03
5691;BME280;2870;42.680;23.364;2023-05-07T00:10:25;95339.94;;;11.22;93.84
5691;BME280;2870;42.680;23.364;2023-05-07T00:12:52;95345.56;;;11.22;94.29
5691;BME280;2870;42.680;23.364;2023-05-07T00:15:19;95346.69;;;11.19;94.63
5691;BME280;2870;42.680;23.364;2023-05-07T00:17:46;95351.75;;;11.28;93.47
5691;BME280;2870;42.680;23.364;2023-05-07T00:20:13;95341.25;;;11.28;93.54
5691;BME280;2870;42.680;23.364;2023-05-07T00:22:41;95335.63;;;11.28;93.66
5691;BME280;2870;42.680;23.364;2023-05-07T00:25:08;95331.50;;;11.22;94.38
5691;BME280;2870;42.680;23.364;2023-05-07T00:27:35;95331.13;;;11.10;94.85
5691;BME280;2870;42.680;23.364;2023-05-07T00:30:02;95333.34;;;10.96;95.94
5691;BME280;2870;42.680;23.364;2023-05-07T00:32:29;95336.72;;;11.02;95.56
5691;BME280;2870;42.680;23.364;2023-05-07T00:34:56;95331.50;;;11.14;95.74
5691;BME280;2870;42.680;23.364;2023-05-07T00:37:23;95326.66;;;11.22;94.54
5691;BME280;2870;42.680;23.364;2023-05-07T00:39:51;95335.81;;;11.23;93.21
5691;BME280;2870;42.680;23.364;2023-05-07T00:42:17;95336.16;;;11.11;93.92
5691;BME280;2870;42.680;23.364;2023-05-07T00:44:44;95339.38;;;11.15;93.11
5691;BME280;2870;42.680;23.364;2023-05-07T00:47:12;95334.50;;;11.08;93.96
5691;BME280;2870;42.680;23.364;2023-05-07T00:49:41;95338.97;;;10.96;94.36
5691;BME280;2870;42.680;23.364;2023-05-07T00:52:12;95339.50;;;10.95;94.78
5691;BME280;2870;42.680;23.364;2023-05-07T00:54:40;95339.66;;;10.81;96.06
5691;BME280;2870;42.680;23.364;2023-05-07T00:57:09;95335.59;;;10.98;94.96
5691;BME280;2870;42.680;23.364;2023-05-07T00:59:37;95346.28;;;11.07;94.04
5691;BME280;2870;42.680;23.364;2023-05-07T01:02:04;95345.72;;;11.01;94.01
5691;BME280;2870;42.680;23.364;2023-05-07T01:04:30;95349.44;;;11.03;94.30
5691;BME280;2870;42.680;23.364;2023-05-07T01:06:58;95344.19;;;10.92;94.34
5691;BME280;2870;42.680;23.364;2023-05-07T01:09:26;95353.13;;;10.83;92.59
5691;BME280;2870;42.680;23.364;2023-05-07T01:11:55;95334.06;;;10.89;91.84
5691;BME280;2870;42.680;23.364;2023-05-07T01:14:24;95346.22;;;10.84;91.08
5691;BME280;2870;42.680;23.364;2023-05-07T01:16:51;95340.44;;;10.90;91.48
5691;BME280;2870;42.680;23.364;2023-05-07T01:19:19;95353.53;;;10.87;90.67
5691;BME280;2870;42.680;23.364;2023-05-07T01:21:48;95341.19;;;10.90;90.20
5691;BME280;2870;42.680;23.364;2023-05-07T01:24:17;95347.22;;;11.02;89.64
5691;BME280;2870;42.680;23.364;2023-05-07T01:26:44;95344.19;;;10.92;90.33
5691;BME280;2870;42.680;23.364;2023-05-07T01:29:11;95343.44;;;10.99;89.90
5691;BME280;2870;42.680;23.364;2023-05-07T01:31:40;95342.13;;;11.00;89.78
5691;BME280;2870;42.680;23.364;2023-05-07T01:34:10;95345.66;;;10.85;90.59
5691;BME280;2870;42.680;23.364;2023-05-07T01:36:39;95302.13;;;10.48;91.12
5691;BME280;2870;42.680;23.364;2023-05-07T01:39:08;95341.13;;;10.75;91.03
5691;BME280;2870;42.680;23.364;2023-05-07T01:41:37;95340.16;;;10.65;91.60
5691;BME280;2870;42.680;23.364;2023-05-07T01:44:05;95341.50;;;10.71;91.39
5691;BME280;2870;42.680;23.364;2023-05-07T01:46:32;95326.94;;;10.73;93.53
5691;BME280;2870;42.680;23.364;2023-05-07T01:48:59;95324.66;;;10.71;92.32
5691;BME280;2870;42.680;23.364;2023-05-07T01:51:26;95326.19;;;10.80;91.78
5691;BME280;2870;42.680;23.364;2023-05-07T01:53:53;95327.84;;;10.68;92.09
5691;BME280;2870;42.680;23.364;2023-05-07T01:56:20;95320.97;;;10.84;92.69
5691;BME280;2870;42.680;23.364;2023-05-07T01:58:48;95323.59;;;10.90;92.62
5691;BME280;2870;42.680;23.364;2023-05-07T02:01:16;95319.44;;;10.83;91.46
5691;BME280;2870;42.680;23.364;2023-05-07T02:03:43;95323.16;;;10.70;91.79
5691;BME280;2870;42.680;23.364;2023-05-07T02:06:10;95313.41;;;10.56;92.64
5691;BME280;2870;42.680;23.364;2023-05-07T02:08:37;95298.41;;;10.53;92.90
5691;BME280;2870;42.680;23.364;2023-05-07T02:11:03;95309.84;;;10.55;92.94
5691;BME280;2870;42.680;23.364;2023-05-07T02:13:33;95302.19;;;10.64;93.08
5691;BME280;2870;42.680;23.364;2023-05-07T02:16:01;95300.31;;;10.58;93.40
5691;BME280;2870;42.680;23.364;2023-05-07T02:18:28;95291.09;;;10.43;95.03
5691;BME280;2870;42.680;23.364;2023-05-07T02:20:55;95291.81;;;10.43;95.41
5691;BME280;2870;42.680;23.364;2023-05-07T02:23:22;95292.13;;;10.68;94.03
5691;BME280;2870;42.680;23.364;2023-05-07T02:25:49;95299.53;;;10.50;95.12
5691;BME280;2870;42.680;23.364;2023-05-07T02:28:16;95296.59;;;10.64;95.14
5691;BME280;2870;42.680;23.364;2023-05-07T02:30:43;95304.84;;;10.77;94.75
5691;BME280;2870;42.680;23.364;2023-05-07T02:33:11;95297.00;;;10.83;94.83
5691;BME280;2870;42.680;23.364;2023-05-07T02:35:39;95298.53;;;10.84;94.83
5691;BME280;2870;42.680;23.364;2023-05-07T02:38:06;95300.19;;;10.87;95.41
5691;BME280;2870;42.680;23.364;2023-05-07T02:40:32;95297.16;;;10.70;96.17
5691;BME280;2870;42.680;23.364;2023-05-07T02:43:04;95297.69;;;10.60;98.05
5691;BME280;2870;42.680;23.364;2023-05-07T02:45:31;95304.16;;;10.92;96.45
5691;BME280;2870;42.680;23.364;2023-05-07T02:47:58;95301.34;;;10.92;96.29
5691;BME280;2870;42.680;23.364;2023-05-07T02:50:26;95300.38;;;10.81;96.61
5691;BME280;2870;42.680;23.364;2023-05-07T02:52:53;95299.81;;;10.83;97.16
5691;BME280;2870;42.680;23.364;2023-05-07T02:55:20;95297.75;;;10.76;98.69
5691;BME280;2870;42.680;23.364;2023-05-07T02:57:47;95302.97;;;10.72;99.64
5691;BME280;2870;42.680;23.364;2023-05-07T03:00:15;95300.59;;;10.83;100.00
5691;BME280;2870;42.680;23.364;2023-05-07T03:02:43;95299.81;;;10.83;100.00
5691;BME280;2870;42.680;23.364;2023-05-07T03:05:10;95304.09;;;10.76;100.00
5691;BME280;2870;42.680;23.364;2023-05-07T03:07:39;95298.13;;;10.87;100.00
5691;BME280;2870;42.680;23.364;2023-05-07T03:10:06;95314.97;;;10.87;100.00
5691;BME280;2870;42.680;23.364;2023-05-07T03:12:34;95312.03;;;11.01;100.00
5691;BME280;2870;42.680;23.364;2023-05-07T03:15:01;95315.00;;;10.95;100.00
5691;BME280;2870;42.680;23.364;2023-05-07T03:17:27;95311.59;;;10.89;100.00
5691;BME280;2870;42.680;23.364;2023-05-07T03:19:54;95311.44;;;10.87;100.00
5691;BME280;2870;42.680;23.364;2023-05-07T03:22:21;95321.34;;;10.88;100.00
5691;BME280;2870;42.680;23.364;2023-05-07T03:24:49;95320.25;;;10.99;100.00
5691;BME280;2870;42.680;23.364;2023-05-07T03:27:17;95327.00;;;11.03;100.00
5691;BME280;2870;42.680;23.364;2023-05-07T03:29:44;95330.34;;;10.94;100.00
5691;BME280;2870;42.680;23.364;2023-05-07T03:32:10;95326.25;;;10.95;100.00
5691;BME280;2870;42.680;23.364;2023-05-07T03:34:38;95333.34;;;11.04;100.00
5691;BME280;2870;42.680;23.364;2023-05-07T03:37:05;95328.69;;;11.14;100.00
5691;BME280;2870;42.680;23.364;2023-05-07T03:39:31;95333.75;;;11.15;100.00
5691;BME280;2870;42.680;23.364;2023-05-07T03:41:59;95334.13;;;11.20;100.00
5691;BME280;2870;42.680;23.364;2023-05-07T03:44:27;95330.38;;;11.17;99.97
5691;BME280;2870;42.680;23.364;2023-05-07T03:46:54;95340.13;;;11.16;100.00
5691;BME280;2870;42.680;23.364;2023-05-07T03:49:20;95342.38;;;11.18;100.00
5691;BME280;2870;42.680;23.364;2023-05-07T03:51:47;95338.25;;;11.19;100.00
5691;BME280;2870;42.680;23.364;2023-05-07T03:54:14;95334.88;;;11.12;100.00
5691;BME280;2870;42.680;23.364;2023-05-07T03:56:41;95341.03;;;11.03;100.00
5691;BME280;2870;42.680;23.364;2023-05-07T03:59:10;95350.03;;;11.09;100.00
5691;BME280;2870;42.680;23.364;2023-05-07T04:01:36;95348.00;;;11.18;100.00
5691;BME280;2870;42.680;23.364;2023-05-07T04:04:03;95350.63;;;11.23;100.00
5691;BME280;2870;42.680;23.364;2023-05-07T04:06:30;95348.34;;;11.22;100.00
5691;BME280;2870;42.680;23.364;2023-05-07T04:08:57;95355.13;;;11.41;100.00
5691;BME280;2870;42.680;23.364;2023-05-07T04:11:24;95363.00;;;11.43;100.00
5691;BME280;2870;42.680;23.364;2023-05-07T04:13:51;95362.06;;;11.48;98.79
5691;BME280;2870;42.680;23.364;2023-05-07T04:16:19;95374.06;;;11.56;99.04
5691;BME280;2870;42.680;23.364;2023-05-07T04:18:46;95372.41;;;11.68;98.93
5691;BME280;2870;42.680;23.364;2023-05-07T04:21:16;95338.66;;;11.38;98.06
5691;BME280;2870;42.680;23.364;2023-05-07T04:23:43;95385.84;;;11.62;96.83
5691;BME280;2870;42.680;23.364;2023-05-07T04:26:10;95382.13;;;11.75;96.54
5691;BME280;2870;42.680;23.364;2023-05-07T04:28:36;95387.78;;;11.83;98.22
5691;BME280;2870;42.680;23.364;2023-05-07T04:31:03;95390.78;;;11.92;98.22
5691;BME280;2870;42.680;23.364;2023-05-07T04:33:32;95390.59;;;11.98;96.26
5691;BME280;2870;42.680;23.364;2023-05-07T04:36:01;95393.75;;;12.02;97.35
5691;BME280;2870;42.680;23.364;2023-05-07T04:38:29;95400.16;;;12.03;96.34
5691;BME280;2870;42.680;23.364;2023-05-07T04:40:57;95404.66;;;11.98;95.64
5691;BME280;2870;42.680;23.364;2023-05-07T04:43:24;95406.16;;;12.14;95.29
5691;BME280;2870;42.680;23.364;2023-05-07T04:45:51;95402.38;;;11.89;94.19
5691;BME280;2870;42.680;23.364;2023-05-07T04:48:18;95406.72;;;11.82;94.08
5691;BME280;2870;42.680;23.364;2023-05-07T04:50:48;95400.72;;;11.93;93.37
5691;BME280;2870;42.680;23.364;2023-05-07T04:53:15;95403.50;;;12.01;94.54
5691;BME280;2870;42.680;23.364;2023-05-07T04:55:42;95398.81;;;12.27;92.69
5691;BME280;2870;42.680;23.364;2023-05-07T04:58:10;95399.88;;;12.54;90.66
5691;BME280;2870;42.680;23.364;2023-05-07T05:00:37;95400.91;;;12.82;88.61
5691;BME280;2870;42.680;23.364;2023-05-07T05:03:04;95403.34;;;12.85;88.60
5691;BME280;2870;42.680;23.364;2023-05-07T05:05:31;95403.34;;;12.85;87.77
5691;BME280;2870;42.680;23.364;2023-05-07T05:07:59;95400.69;;;12.95;87.93
5691;BME280;2870;42.680;23.364;2023-05-07T05:10:26;95396.97;;;12.85;88.67
5691;BME280;2870;42.680;23.364;2023-05-07T05:12:53;95397.88;;;12.95;89.12
5691;BME280;2870;42.680;23.364;2023-05-07T05:15:20;95397.56;;;13.23;88.98
5691;BME280;2870;42.680;23.364;2023-05-07T05:17:46;95399.31;;;13.44;86.95
5691;BME280;2870;42.680;23.364;2023-05-07T05:20:13;95406.06;;;13.48;86.82
5691;BME280;2870;42.680;23.364;2023-05-07T05:22:41;95399.53;;;13.38;87.71
5691;BME280;2870;42.680;23.364;2023-05-07T05:25:09;95399.84;;;13.50;88.20
5691;BME280;2870;42.680;23.364;2023-05-07T05:27:36;95402.75;;;13.92;87.48
5691;BME280;2870;42.680;23.364;2023-05-07T05:30:03;95400.06;;;14.02;85.70
5691;BME280;2870;42.680;23.364;2023-05-07T05:32:31;95413.72;;;14.30;83.90
5691;BME280;2870;42.680;23.364;2023-05-07T05:34:58;95410.72;;;14.28;84.21
5691;BME280;2870;42.680;23.364;2023-05-07T05:37:25;95411.38;;;13.69;86.74
5691;BME280;2870;42.680;23.364;2023-05-07T05:39:52;95411.66;;;14.06;85.87
5691;BME280;2870;42.680;23.364;2023-05-07T05:42:21;95407.53;;;14.07;84.27
5691;BME280;2870;42.680;23.364;2023-05-07T05:44:48;95408.88;;;14.23;86.46
5691;BME280;2870;42.680;23.364;2023-05-07T05:47:15;95409.59;;;13.82;86.14
5691;BME280;2870;42.680;23.364;2023-05-07T05:49:42;95410.06;;;13.70;87.03
5691;BME280;2870;42.680;23.364;2023-05-07T05:52:12;95406.47;;;14.20;86.03
5691;BME280;2870;42.680;23.364;2023-05-07T05:54:40;95415.81;;;14.30;85.64
5691;BME280;2870;42.680;23.364;2023-05-07T05:57:06;95407.56;;;14.24;84.84
5691;BME280;2870;42.680;23.364;2023-05-07T05:59:35;95405.78;;;14.12;84.60
5691;BME280;2870;42.680;23.364;2023-05-07T06:02:02;95411.69;;;14.23;84.64
5691;BME280;2870;42.680;23.364;2023-05-07T06:04:29;95414.88;;;14.27;83.70
5691;BME280;2870;42.680;23.364;2023-05-07T06:06:56;95417.34;;;14.83;85.89
5691;BME280;2870;42.680;23.364;2023-05-07T06:09:23;95414.41;;;15.08;83.86
5691;BME280;2870;42.680;23.364;2023-05-07T06:11:50;95416.41;;;15.15;82.32
5691;BME280;2870;42.680;23.364;2023-05-07T06:14:16;95414.19;;;14.96;81.32
5691;BME280;2870;42.680;23.364;2023-05-07T06:16:45;95416.75;;;14.84;80.81
5691;BME280;2870;42.680;23.364;2023-05-07T06:19:11;95414.88;;;14.87;80.70
5691;BME280;2870;42.680;23.364;2023-05-07T06:21:39;95403.56;;;14.70;81.14
5691;BME280;2870;42.680;23.364;2023-05-07T06:24:06;95405.06;;;14.88;80.84
5691;BME280;2870;42.680;23.364;2023-05-07T06:26:33;95403.44;;;15.12;80.38
5691;BME280;2870;42.680;23.364;2023-05-07T06:29:00;95411.38;;;15.41;80.50
5691;BME280;2870;42.680;23.364;2023-05-07T06:31:29;95411.41;;;15.68;79.75
5691;BME280;2870;42.680;23.364;2023-05-07T06:33:58;95400.50;;;15.64;77.51
5691;BME280;2870;42.680;23.364;2023-05-07T06:36:27;95401.03;;;15.80;78.21
5691;BME280;2870;42.680;23.364;2023-05-07T06:38:54;95399.97;;;16.22;78.28
5691;BME280;2870;42.680;23.364;2023-05-07T06:41:21;95394.97;;;16.49;76.44
5691;BME280;2870;42.680;23.364;2023-05-07T06:43:48;95389.34;;;16.68;74.55
5691;BME280;2870;42.680;23.364;2023-05-07T06:46:14;95384.44;;;16.69;73.43
5691;BME280;2870;42.680;23.364;2023-05-07T06:48:41;95380.84;;;16.39;75.19
5691;BME280;2870;42.680;23.364;2023-05-07T06:51:10;95379.94;;;16.66;73.81
5691;BME280;2870;42.680;23.364;2023-05-07T06:53:37;95379.47;;;16.50;75.38
5691;BME280;2870;42.680;23.364;2023-05-07T06:56:04;95382.38;;;16.79;74.16
5691;BME280;2870;42.680;23.364;2023-05-07T06:58:31;95383.13;;;17.09;71.77
5691;BME280;2870;42.680;23.364;2023-05-07T07:00:58;95375.19;;;17.17;72.38
5691;BME280;2870;42.680;23.364;2023-05-07T07:03:25;95386.66;;;17.38;72.29
5691;BME280;2870;42.680;23.364;2023-05-07T07:05:52;95379.84;;;16.74;73.68
5691;BME280;2870;42.680;23.364;2023-05-07T07:08:20;95388.63;;;17.07;74.24
5691;BME280;2870;42.680;23.364;2023-05-07T07:10:47;95387.31;;;17.08;72.29
5691;BME280;2870;42.680;23.364;2023-05-07T07:13:14;95378.03;;;17.17;72.74
5691;BME280;2870;42.680;23.364;2023-05-07T07:15:42;95379.50;;;17.18;73.20
5691;BME280;2870;42.680;23.364;2023-05-07T07:18:08;95373.09;;;17.27;72.20
5691;BME280;2870;42.680;23.364;2023-05-07T07:20:35;95378.66;;;17.66;70.79
5691;BME280;2870;42.680;23.364;2023-05-07T07:23:02;95377.81;;;18.04;68.81
5691;BME280;2870;42.680;23.364;2023-05-07T07:25:31;95376.44;;;18.36;65.96
5691;BME280;2870;42.680;23.364;2023-05-07T07:27:58;95374.41;;;18.48;69.05
5691;BME280;2870;42.680;23.364;2023-05-07T07:30:25;95380.50;;;18.33;67.17
5691;BME280;2870;42.680;23.364;2023-05-07T07:32:52;95378.97;;;18.85;66.78
5691;BME280;2870;42.680;23.364;2023-05-07T07:35:19;95381.06;;;18.84;65.90
5691;BME280;2870;42.680;23.364;2023-05-07T07:37:46;95376.19;;;18.75;67.98
5691;BME280;2870;42.680;23.364;2023-05-07T07:40:15;95381.75;;;19.27;64.65
5691;BME280;2870;42.680;23.364;2023-05-07T07:42:43;95385.22;;;19.71;61.47
5691;BME280;2870;42.680;23.364;2023-05-07T07:45:10;95389.84;;;20.23;60.72
5691;BME280;2870;42.680;23.364;2023-05-07T07:47:37;95394.53;;;20.06;61.42
5691;BME280;2870;42.680;23.364;2023-05-07T07:50:05;95390.59;;;20.23;61.06
5691;BME280;2870;42.680;23.364;2023-05-07T07:52:32;95391.47;;;20.98;57.25
5691;BME280;2870;42.680;23.364;2023-05-07T07:54:59;95391.72;;;21.02;56.16
5691;BME280;2870;42.680;23.364;2023-05-07T07:57:26;95398.69;;;21.62;54.53
5691;BME280;2870;42.680;23.364;2023-05-07T07:59:55;95396.75;;;21.53;54.83
5691;BME280;2870;42.680;23.364;2023-05-07T08:02:22;95398.97;;;21.93;54.03
5691;BME280;2870;42.680;23.364;2023-05-07T08:04:49;95398.66;;;22.54;52.36
5691;BME280;2870;42.680;23.364;2023-05-07T08:07:15;95400.47;;;22.89;50.73
5691;BME280;2870;42.680;23.364;2023-05-07T08:09:44;95399.06;;;22.21;54.40
5691;BME280;2870;42.680;23.364;2023-05-07T08:12:10;95392.72;;;22.64;51.40
5691;BME280;2870;42.680;23.364;2023-05-07T08:14:37;95387.31;;;22.84;50.77
5691;BME280;2870;42.680;23.364;2023-05-07T08:17:06;95390.41;;;22.46;50.68
5691;BME280;2870;42.680;23.364;2023-05-07T08:19:32;95387.19;;;22.68;51.08
5691;BME280;2870;42.680;23.364;2023-05-07T08:21:59;95385.75;;;23.53;48.04
5691;BME280;2870;42.680;23.364;2023-05-07T08:24:27;95389.19;;;23.95;48.57
5691;BME280;2870;42.680;23.364;2023-05-07T08:26:53;95386.75;;;23.44;48.42
5691;BME280;2870;42.680;23.364;2023-05-07T08:29:20;95386.28;;;23.64;50.63
5691;BME280;2870;42.680;23.364;2023-05-07T08:31:47;95381.69;;;23.72;47.13
5691;BME280;2870;42.680;23.364;2023-05-07T08:34:15;95384.38;;;24.31;45.44
5691;BME280;2870;42.680;23.364;2023-05-07T08:36:42;95385.47;;;24.72;45.13
5691;BME280;2870;42.680;23.364;2023-05-07T08:39:09;95381.19;;;23.62;49.12
5691;BME280;2870;42.680;23.364;2023-05-07T08:41:36;95385.53;;;24.40;46.58
5691;BME280;2870;42.680;23.364;2023-05-07T08:44:03;95374.03;;;24.56;45.07
5691;BME280;2870;42.680;23.364;2023-05-07T08:46:33;95376.34;;;25.45;44.09
5691;BME280;2870;42.680;23.364;2023-05-07T08:49:00;95381.47;;;25.64;42.97
5691;BME280;2870;42.680;23.364;2023-05-07T08:51:29;95378.38;;;25.06;43.62
5691;BME280;2870;42.680;23.364;2023-05-07T08:53:56;95373.41;;;24.42;46.15
5691;BME280;2870;42.680;23.364;2023-05-07T08:56:24;95364.13;;;24.59;44.25
5691;BME280;2870;42.680;23.364;2023-05-07T08:58:51;95374.88;;;24.92;46.33
5691;BME280;2870;42.680;23.364;2023-05-07T09:01:21;95362.38;;;25.73;42.73
5691;BME280;2870;42.680;23.364;2023-05-07T09:03:49;95363.72;;;25.00;41.82
5691;BME280;2870;42.680;23.364;2023-05-07T09:06:16;95358.31;;;24.57;42.58
5691;BME280;2870;42.680;23.364;2023-05-07T09:08:49;95365.03;;;25.13;42.34
5691;BME280;2870;42.680;23.364;2023-05-07T09:11:16;95360.75;;;25.50;37.47
5691;BME280;2870;42.680;23.364;2023-05-07T09:13:42;95337.44;;;25.06;41.16
5691;BME280;2870;42.680;23.364;2023-05-07T09:16:11;95335.66;;;25.32;42.60
5691;BME280;2870;42.680;23.364;2023-05-07T09:18:41;95351.84;;;25.42;39.50
5691;BME280;2870;42.680;23.364;2023-05-07T09:21:10;95343.59;;;26.65;37.68
5691;BME280;2870;42.680;23.364;2023-05-07T09:23:37;95346.72;;;25.94;39.26
5691;BME280;2870;42.680;23.364;2023-05-07T09:26:05;95335.88;;;24.69;38.80
5691;BME280;2870;42.680;23.364;2023-05-07T09:28:38;95337.84;;;24.65;39.04
5691;BME280;2870;42.680;23.364;2023-05-07T09:31:05;95336.22;;;23.96;39.86
5691;BME280;2870;42.680;23.364;2023-05-07T09:33:32;95312.03;;;25.16;38.10
5691;BME280;2870;42.680;23.364;2023-05-07T09:36:02;95331.97;;;25.30;38.25
5691;BME280;2870;42.680;23.364;2023-05-07T09:38:30;95330.16;;;25.56;37.32
5691;BME280;2870;42.680;23.364;2023-05-07T09:41:05;95328.09;;;25.23;38.95
5691;BME280;2870;42.680;23.364;2023-05-07T09:43:33;95325.88;;;25.40;35.60
5691;BME280;2870;42.680;23.364;2023-05-07T09:46:06;95321.03;;;24.91;36.03
5691;BME280;2870;42.680;23.364;2023-05-07T09:48:37;95328.50;;;25.51;35.17
5691;BME280;2870;42.680;23.364;2023-05-07T09:51:09;95321.81;;;24.75;37.84
5691;BME280;2870;42.680;23.364;2023-05-07T09:53:39;95311.50;;;25.93;35.30
5691;BME280;2870;42.680;23.364;2023-05-07T09:56:08;95318.81;;;26.16;37.25
5691;BME280;2870;42.680;23.364;2023-05-07T09:58:36;95308.84;;;26.19;36.95
5691;BME280;2870;42.680;23.364;2023-05-07T10:01:04;95320.59;;;25.70;35.12
5691;BME280;2870;42.680;23.364;2023-05-07T10:03:33;95316.06;;;26.00;35.53
5691;BME280;2870;42.680;23.364;2023-05-07T10:06:02;95312.78;;;25.17;36.63
5691;BME280;2870;42.680;23.364;2023-05-07T10:08:30;95307.03;;;25.90;34.91
5691;BME280;2870;42.680;23.364;2023-05-07T10:10:57;95309.31;;;27.37;33.06
5691;BME280;2870;42.680;23.364;2023-05-07T10:13:25;95307.16;;;26.52;32.28
5691;BME280;2870;42.680;23.364;2023-05-07T10:15:52;95300.16;;;25.42;33.83
5691;BME280;2870;42.680;23.364;2023-05-07T10:18:21;95296.75;;;26.42;33.78
5691;BME280;2870;42.680;23.364;2023-05-07T10:21:07;95297.13;;;25.93;32.29
5691;BME280;2870;42.680;23.364;2023-05-07T10:23:35;95292.72;;;26.10;34.95
5691;BME280;2870;42.680;23.364;2023-05-07T10:26:03;95286.94;;;25.34;32.99
5691;BME280;2870;42.680;23.364;2023-05-07T10:28:36;95284.94;;;26.96;32.32
5691;BME280;2870;42.680;23.364;2023-05-07T10:31:14;95284.84;;;27.60;31.64
5691;BME280;2870;42.680;23.364;2023-05-07T10:33:43;95278.91;;;26.88;31.35
5691;BME280;2870;42.680;23.364;2023-05-07T10:36:11;95273.75;;;27.28;29.79
5691;BME280;2870;42.680;23.364;2023-05-07T10:38:38;95268.75;;;26.85;31.29
5691;BME280;2870;42.680;23.364;2023-05-07T10:41:06;95265.78;;;26.83;32.11
5691;BME280;2870;42.680;23.364;2023-05-07T10:43:42;95264.13;;;27.19;30.87
5691;BME280;2870;42.680;23.364;2023-05-07T10:46:10;95269.00;;;27.61;31.10
5691;BME280;2870;42.680;23.364;2023-05-07T10:49:09;95268.81;;;27.77;32.62
5691;BME280;2870;42.680;23.364;2023-05-07T10:51:37;95265.84;;;27.98;30.05
5691;BME280;2870;42.680;23.364;2023-05-07T10:54:23;95241.84;;;27.44;29.98
5691;BME280;2870;42.680;23.364;2023-05-07T10:56:50;95240.91;;;27.13;31.52
5691;BME280;2870;42.680;23.364;2023-05-07T10:59:36;95251.97;;;24.87;33.48
5691;BME280;2870;42.680;23.364;2023-05-07T11:02:09;95255.41;;;25.01;35.75
5691;BME280;2870;42.680;23.364;2023-05-07T11:04:37;95253.25;;;23.67;34.36
5691;BME280;2870;42.680;23.364;2023-05-07T11:07:24;95252.53;;;24.65;34.08
5691;BME280;2870;42.680;23.364;2023-05-07T11:10:07;95248.94;;;24.65;35.57
5691;BME280;2870;42.680;23.364;2023-05-07T11:12:50;95253.03;;;24.10;34.66
5691;BME280;2870;42.680;23.364;2023-05-07T11:15:41;95252.28;;;24.59;35.19
5691;BME280;2870;42.680;23.364;2023-05-07T11:18:10;95250.84;;;25.29;33.66
5691;BME280;2870;42.680;23.364;2023-05-07T11:20:51;95244.03;;;24.85;32.74
5691;BME280;2870;42.680;23.364;2023-05-07T11:23:55;95235.75;;;25.11;33.42
5691;BME280;2870;42.680;23.364;2023-05-07T11:26:23;95231.78;;;24.67;33.46
5691;BME280;2870;42.680;23.364;2023-05-07T11:28:51;95233.00;;;24.62;34.86
5691;BME280;2870;42.680;23.364;2023-05-07T11:31:23;95226.34;;;24.39;33.96
5691;BME280;2870;42.680;23.364;2023-05-07T11:33:52;95228.28;;;24.68;33.01
5691;BME280;2870;42.680;23.364;2023-05-07T11:36:19;95217.38;;;24.31;33.71
5691;BME280;2870;42.680;23.364;2023-05-07T11:38:46;95189.94;;;24.26;34.89
5691;BME280;2870;42.680;23.364;2023-05-07T11:41:13;95224.66;;;24.50;33.18
5691;BME280;2870;42.680;23.364;2023-05-07T11:43:54;95222.53;;;24.17;32.93
5691;BME280;2870;42.680;23.364;2023-05-07T11:46:22;95221.78;;;24.50;33.39
5691;BME280;2870;42.680;23.364;2023-05-07T11:48:49;95230.13;;;24.44;33.47
5691;BME280;2870;42.680;23.364;2023-05-07T11:51:20;95224.88;;;23.89;33.42
5691;BME280;2870;42.680;23.364;2023-05-07T11:53:48;95224.03;;;23.86;33.29
5691;BME280;2870;42.680;23.364;2023-05-07T11:56:16;95221.28;;;24.22;33.56
5691;BME280;2870;42.680;23.364;2023-05-07T11:58:45;95222.16;;;24.09;32.66
5691;BME280;2870;42.680;23.364;2023-05-07T12:01:13;95213.03;;;23.96;32.76
5691;BME280;2870;42.680;23.364;2023-05-07T12:03:43;95213.59;;;24.60;32.78
5691;BME280;2870;42.680;23.364;2023-05-07T12:06:11;95211.66;;;24.31;33.40
5691;BME280;2870;42.680;23.364;2023-05-07T12:08:40;95214.06;;;24.37;33.07
5691;BME280;2870;42.680;23.364;2023-05-07T12:11:07;95202.31;;;23.97;32.64
5691;BME280;2870;42.680;23.364;2023-05-07T12:13:35;95206.06;;;24.17;33.28
5691;BME280;2870;42.680;23.364;2023-05-07T12:16:02;95191.50;;;24.80;33.02
5691;BME280;2870;42.680;23.364;2023-05-07T12:18:29;95188.69;;;25.18;33.13
5691;BME280;2870;42.680;23.364;2023-05-07T12:20:59;95189.50;;;25.21;31.95
5691;BME280;2870;42.680;23.364;2023-05-07T12:23:26;95186.91;;;24.91;34.11
5691;BME280;2870;42.680;23.364;2023-05-07T12:25:53;95192.72;;;25.11;31.47
5691;BME280;2870;42.680;23.364;2023-05-07T12:28:19;95184.28;;;25.35;32.50
5691;BME280;2870;42.680;23.364;2023-05-07T12:30:47;95182.31;;;25.02;31.42
5691;BME280;2870;42.680;23.364;2023-05-07T12:33:16;95174.50;;;25.04;31.52
5691;BME280;2870;42.680;23.364;2023-05-07T12:35:43;95174.66;;;25.26;31.55
5691;BME280;2870;42.680;23.364;2023-05-07T12:38:13;95156.56;;;25.42;31.56
5691;BME280;2870;42.680;23.364;2023-05-07T12:40:41;95178.53;;;25.53;31.06
5691;BME280;2870;42.680;23.364;2023-05-07T12:43:15;95166.72;;;24.71;32.06
5691;BME280;2870;42.680;23.364;2023-05-07T12:45:43;95158.00;;;25.05;31.36
5691;BME280;2870;42.680;23.364;2023-05-07T12:48:10;95158.66;;;25.21;30.49
5691;BME280;2870;42.680;23.364;2023-05-07T12:50:37;95147.91;;;25.22;29.82
5691;BME280;2870;42.680;23.364;2023-05-07T12:53:04;95155.28;;;25.47;30.69
5691;BME280;2870;42.680;23.364;2023-05-07T12:55:40;95157.25;;;25.22;30.92
5691;BME280;2870;42.680;23.364;2023-05-07T12:58:07;95154.16;;;25.16;29.37
5691;BME280;2870;42.680;23.364;2023-05-07T13:00:35;95142.91;;;25.22;28.91
5691;BME280;2870;42.680;23.364;2023-05-07T13:03:03;95145.69;;;24.65;30.66
5691;BME280;2870;42.680;23.364;2023-05-07T13:05:30;95136.78;;;24.94;nan
5691;BME280;2870;42.680;23.364;2023-05-07T13:07:58;95145.72;;;25.20;30.93
5691;BME280;2870;42.680;23.364;2023-05-07T13:10:25;95132.75;;;25.19;30.26
5691;BME280;2870;42.680;23.364;2023-05-07T13:12:54;95132.03;;;25.01;30.47
5691;BME280;2870;42.680;23.364;2023-05-07T13:15:21;95135.88;;;24.90;29.82